createdAt,value
2023-06-11T00:03:59.696Z,22.71
2023-06-11T00:09:01.277Z,22.39
2023-06-11T00:14:02.843Z,22.20
2023-06-11T00:19:04.723Z,22.14
2023-06-11T00:24:06.397Z,21.80
2023-06-11T00:29:08.980Z,21.40
2023-06-11T00:34:10.582Z,21.34
2023-06-11T00:39:12.753Z,21.37
2023-06-11T00:44:15.179Z,21.43
2023-06-11T00:49:16.738Z,21.41
2023-06-11T00:54:18.295Z,21.33
2023-06-11T00:59:20.149Z,21.18
2023-06-11T01:04:22.448Z,21.17
2023-06-11T01:09:25.992Z,21.26
2023-06-11T01:14:27.620Z,21.30
2023-06-11T01:19:47.720Z,21.29
2023-06-11T01:24:55.347Z,21.51
2023-06-11T01:29:58.937Z,21.31
2023-06-11T01:35:02.415Z,20.91
2023-06-11T01:40:10.274Z,20.82
2023-06-11T01:45:22.520Z,20.76
2023-06-11T01:50:24.202Z,20.75
2023-06-11T01:55:25.896Z,20.57
2023-06-11T02:00:27.575Z,20.55
2023-06-11T02:05:29.159Z,20.45
2023-06-11T02:10:30.720Z,20.32
2023-06-11T02:22:00.246Z,20.50
2023-06-11T02:27:01.876Z,20.47
2023-06-11T02:32:05.315Z,20.15
2023-06-11T02:37:07.393Z,19.85
2023-06-11T02:42:09.463Z,19.75
2023-06-11T02:47:11.127Z,19.75
2023-06-11T02:52:12.722Z,19.67
2023-06-11T02:57:14.275Z,19.66
2023-06-11T03:02:15.894Z,19.63
2023-06-11T03:07:17.692Z,19.55
2023-06-11T03:12:19.605Z,19.44
2023-06-11T03:17:21.302Z,19.32
2023-06-11T03:22:23.026Z,19.31
2023-06-11T03:27:24.954Z,19.32
2023-06-11T03:32:26.701Z,19.35
2023-06-11T03:37:28.483Z,19.48
2023-06-11T03:42:33.423Z,19.71
2023-06-11T03:47:35.400Z,19.76
2023-06-11T03:52:37.652Z,19.82
2023-06-11T03:57:39.773Z,19.90
2023-06-11T04:02:41.613Z,20.05
2023-06-11T04:07:46.364Z,20.17
2023-06-11T04:12:48.148Z,20.28
2023-06-11T04:17:49.868Z,20.34
2023-06-11T04:22:52.328Z,20.55
2023-06-11T04:27:54.257Z,20.66
2023-06-11T04:32:57.211Z,20.68
2023-06-11T04:38:05.125Z,20.63
2023-06-11T04:43:07.439Z,20.60
2023-06-11T04:48:09.285Z,20.56
2023-06-11T04:53:10.991Z,20.74
2023-06-11T04:58:13.938Z,20.94
2023-06-11T05:03:16.627Z,21.19
2023-06-11T05:08:23.210Z,22.07
2023-06-11T05:13:25.859Z,23.13
2023-06-11T05:18:30.885Z,24.48
2023-06-11T05:23:36.049Z,25.83
2023-06-11T05:28:41.140Z,26.23
2023-06-11T05:33:43.632Z,25.47
2023-06-11T05:38:45.310Z,26.39
2023-06-11T05:43:47.805Z,27.02
2023-06-11T05:48:50.540Z,27.92
2023-06-11T05:53:52.461Z,28.26
2023-06-11T05:58:55.872Z,28.29
2023-06-11T06:03:58.936Z,28.87
2023-06-11T06:09:01.587Z,28.94
2023-06-11T06:14:03.574Z,29.12
2023-06-11T06:19:05.563Z,27.86
2023-06-11T06:24:07.518Z,28.93
2023-06-11T06:29:09.526Z,28.47
2023-06-11T06:34:11.360Z,26.77
2023-06-11T06:39:13.241Z,26.73
2023-06-11T06:44:15.319Z,26.55
2023-06-11T06:49:17.108Z,26.30
2023-06-11T06:54:20.045Z,26.74
2023-06-11T06:59:24.838Z,26.45
2023-06-11T07:04:26.492Z,26.59
2023-06-11T07:09:28.134Z,27.33
2023-06-11T07:14:29.811Z,27.85
2023-06-11T07:19:31.704Z,28.22
2023-06-11T07:24:33.421Z,27.95
2023-06-11T07:29:35.232Z,27.47
2023-06-11T07:34:38.076Z,27.88
2023-06-11T07:39:40.001Z,29.20
2023-06-11T07:44:41.657Z,29.74
2023-06-11T07:49:43.459Z,28.42
2023-06-11T07:54:45.412Z,29.13
2023-06-11T07:59:47.152Z,31.06
2023-06-11T08:04:48.762Z,31.90
2023-06-11T08:09:50.448Z,32.85
2023-06-11T08:14:51.992Z,32.02
2023-06-11T08:19:53.638Z,30.47
2023-06-11T08:24:55.200Z,31.04
2023-06-11T08:29:56.930Z,31.50
2023-06-11T08:34:58.548Z,31.49
2023-06-11T08:40:00.273Z,30.14
2023-06-11T08:45:02.577Z,30.41
2023-06-11T08:50:04.680Z,31.95
2023-06-11T08:55:06.708Z,30.43
2023-06-11T09:00:09.014Z,30.41
2023-06-11T09:05:12.544Z,31.49
2023-06-11T09:10:14.590Z,31.00
2023-06-11T09:15:18.092Z,30.49
2023-06-11T09:20:22.233Z,31.46
2023-06-11T09:25:23.976Z,31.30
2023-06-11T09:30:25.732Z,32.00
2023-06-11T09:35:27.420Z,31.41
2023-06-11T09:40:35.060Z,31.54
2023-06-11T09:45:37.350Z,31.39
2023-06-11T09:50:39.248Z,32.28
2023-06-11T09:55:42.327Z,34.29
2023-06-11T10:00:53.281Z,34.71
2023-06-11T10:05:55.308Z,31.84
2023-06-11T10:11:01.576Z,33.46
2023-06-11T10:16:05.148Z,31.41
2023-06-11T10:21:06.825Z,32.29
2023-06-11T10:26:09.792Z,32.38
2023-06-11T10:31:11.571Z,33.60
2023-06-11T10:36:26.419Z,31.89
2023-06-11T10:41:29.608Z,31.77
2023-06-11T10:46:31.507Z,32.82
2023-06-11T10:51:40.306Z,34.22
2023-06-11T10:56:42.386Z,33.82
2023-06-11T11:01:44.200Z,33.65
2023-06-11T11:06:45.857Z,34.01
2023-06-11T11:11:47.578Z,33.58
2023-06-11T11:16:50.262Z,31.96
2023-06-11T11:21:52.770Z,32.93
2023-06-11T11:26:54.336Z,33.00
2023-06-11T11:31:56.973Z,32.81
2023-06-11T11:36:58.785Z,32.51
2023-06-11T11:42:03.071Z,32.27
2023-06-11T11:47:12.135Z,32.87
2023-06-11T11:52:13.719Z,32.67
2023-06-11T11:57:21.638Z,33.14
2023-06-11T12:02:27.361Z,35.29
2023-06-11T12:07:29.076Z,34.16
2023-06-11T12:12:30.793Z,33.87
2023-06-11T12:17:32.551Z,35.13
2023-06-11T12:22:34.135Z,35.67
2023-06-11T12:27:35.791Z,33.84
2023-06-11T12:32:37.395Z,34.89
2023-06-11T12:37:39.075Z,33.83
2023-06-11T12:42:41.047Z,32.80
2023-06-11T12:47:42.930Z,33.97
2023-06-11T12:52:44.620Z,33.75
2023-06-11T12:57:46.298Z,35.92
2023-06-11T13:02:48.065Z,36.45
2023-06-11T13:07:50.944Z,36.04
2023-06-11T13:12:55.599Z,34.54
2023-06-11T13:17:57.351Z,35.65
2023-06-11T13:22:59.020Z,35.36
2023-06-11T13:28:00.875Z,34.48
2023-06-11T13:33:02.527Z,34.79
2023-06-11T13:38:04.326Z,35.53
2023-06-11T13:43:06.012Z,36.12
2023-06-11T13:48:15.727Z,35.49
2023-06-11T13:53:18.471Z,34.14
2023-06-11T13:58:20.213Z,34.11
2023-06-11T14:03:23.038Z,34.10
2023-06-11T14:08:24.755Z,34.73
2023-06-11T14:13:26.827Z,36.47
2023-06-11T14:18:28.601Z,34.49
2023-06-11T14:23:30.286Z,34.21
2023-06-11T14:28:31.989Z,33.46
2023-06-11T14:33:33.670Z,34.42
2023-06-11T14:38:35.287Z,35.69
2023-06-11T14:43:37.073Z,36.98
2023-06-11T14:48:38.635Z,34.82
2023-06-11T14:53:40.315Z,34.24
2023-06-11T14:58:41.930Z,35.11
2023-06-11T15:03:43.619Z,34.49
2023-06-11T15:08:45.403Z,34.14
2023-06-11T15:13:46.962Z,34.83
2023-06-11T15:18:48.569Z,32.97
2023-06-11T15:23:50.251Z,34.31
2023-06-11T15:28:52.013Z,34.89
2023-06-11T15:33:53.800Z,35.20
2023-06-11T15:38:55.369Z,35.14
2023-06-11T15:43:59.952Z,34.91
2023-06-11T15:49:01.788Z,36.28
2023-06-11T15:54:04.185Z,35.55
2023-06-11T15:59:05.862Z,34.64
2023-06-11T16:04:07.563Z,34.41
2023-06-11T16:09:09.416Z,32.94
2023-06-11T16:14:11.005Z,33.16
2023-06-11T16:19:12.721Z,33.65
2023-06-11T16:24:14.449Z,34.16
2023-06-11T16:29:16.112Z,34.03
2023-06-11T16:34:17.881Z,34.10
2023-06-11T16:39:27.565Z,33.69
2023-06-11T16:44:30.182Z,32.99
2023-06-11T16:49:31.815Z,32.91
2023-06-11T16:54:33.731Z,33.10
2023-06-11T16:59:35.323Z,32.87
2023-06-11T17:04:36.928Z,32.85
2023-06-11T17:09:38.997Z,32.64
2023-06-11T17:14:40.650Z,32.86
2023-06-11T17:19:42.442Z,31.75
2023-06-11T17:24:44.055Z,32.23
2023-06-11T17:29:45.856Z,32.04
2023-06-11T17:34:47.640Z,32.13
2023-06-11T17:39:49.288Z,32.07
2023-06-11T17:44:51.361Z,31.81
2023-06-11T17:49:52.978Z,31.70
2023-06-11T17:54:54.532Z,31.44
2023-06-11T17:59:56.492Z,31.61
2023-06-11T18:04:58.107Z,31.46
2023-06-11T18:10:00.471Z,31.28
2023-06-11T18:15:10.880Z,30.76
2023-06-11T18:20:23.925Z,30.45
2023-06-11T18:25:25.740Z,30.60
2023-06-11T18:30:27.626Z,30.14
2023-06-11T18:35:29.287Z,29.62
2023-06-11T18:40:31.105Z,29.00
2023-06-11T18:45:32.874Z,28.47
2023-06-11T18:50:34.466Z,28.24
2023-06-11T18:55:36.061Z,27.97
2023-06-11T19:00:37.729Z,27.76
2023-06-11T19:05:40.242Z,27.65
2023-06-11T19:10:41.830Z,27.43
2023-06-11T19:15:46.045Z,27.24
2023-06-11T19:20:47.686Z,27.07
2023-06-11T19:25:49.323Z,26.83
2023-06-11T19:30:51.067Z,26.51
2023-06-11T19:35:52.913Z,26.44
2023-06-11T19:40:54.663Z,26.40
2023-06-11T19:45:56.200Z,26.24
2023-06-11T19:50:57.997Z,25.88
2023-06-11T19:55:59.568Z,25.52
2023-06-11T20:01:01.489Z,25.44
2023-06-11T20:06:03.100Z,25.04
2023-06-11T20:11:05.336Z,24.85
2023-06-11T20:16:07.053Z,24.59
2023-06-11T20:21:09.001Z,24.67
2023-06-11T20:26:11.076Z,24.98
2023-06-11T20:31:13.001Z,25.23
2023-06-11T20:36:14.636Z,25.23
2023-06-11T20:41:16.208Z,24.52
2023-06-11T20:46:29.076Z,24.17
2023-06-11T20:51:31.172Z,24.17
2023-06-11T20:56:32.782Z,24.30
2023-06-11T21:01:34.382Z,24.09
2023-06-11T21:06:36.502Z,23.56
2023-06-11T21:11:38.170Z,23.14
2023-06-11T21:16:39.810Z,23.21
2023-06-11T21:21:41.518Z,23.18
2023-06-11T21:26:43.143Z,23.25
2023-06-11T21:31:44.796Z,23.40
2023-06-11T21:36:46.573Z,23.43
2023-06-11T21:41:48.640Z,23.09
2023-06-11T21:46:51.181Z,22.96
2023-06-11T21:51:52.794Z,22.81
2023-06-11T21:56:54.418Z,22.55
2023-06-11T22:01:55.971Z,22.30
2023-06-11T22:06:57.538Z,22.19
2023-06-11T22:11:59.087Z,22.13
2023-06-11T22:17:00.716Z,22.02
2023-06-11T22:22:02.352Z,21.86
2023-06-11T22:27:05.874Z,21.74
2023-06-11T22:32:07.846Z,21.64
2023-06-11T22:37:09.526Z,21.65
2023-06-11T22:42:11.304Z,21.35
2023-06-11T22:47:12.918Z,20.92
2023-06-11T22:52:14.586Z,20.91
2023-06-11T22:57:16.465Z,20.68
2023-06-11T23:02:18.052Z,20.68
2023-06-11T23:07:19.658Z,20.70
2023-06-11T23:12:21.258Z,20.55
2023-06-11T23:17:23.044Z,20.59
2023-06-11T23:22:24.575Z,20.91
2023-06-11T23:27:26.173Z,20.70
2023-06-11T23:32:27.890Z,20.34
2023-06-11T23:37:29.804Z,19.98
2023-06-11T23:42:31.329Z,19.88
2023-06-11T23:47:32.935Z,19.99
2023-06-11T23:52:34.594Z,20.07
2023-06-11T23:57:38.256Z,20.06
